Time;durP1;ratioP1;P1;durP2;ratioP2;P2;SDS_P1;SDS_P2;PMS_P1;PMS_P2;Temp;Humidity;BMP_temperature;BMP_pressure;BME280_temperature;BME280_humidity;BME280_pressure;Samples;Min_cycle;Max_cycle;Signal;HPM_P1;HPM_P2
2023/01/21 00:00:58;;;;;;;;;;;;;;;5.63;60.25;98932.19;4482379;32;35038;-71
2023/01/21 00:03:25;;;;;;;;;;;;;;;6.24;58.61;98928.84;4480253;32;33735;-70
2023/01/21 00:05:52;;;;;;;;;;;;;;;6.36;57.81;98927.16;4470496;32;35543;-69
2023/01/21 00:08:20;;;;;;;;;;;;;;;6.16;58.49;98930.34;4468890;32;33560;-69
2023/01/21 00:10:47;;;;;;;;;;;;;;;6.61;56.38;98926.25;4475830;32;34656;-70
2023/01/21 00:13:14;;;;;;;;;;;;;;;6.23;57.53;98923.66;4471815;31;34949;-69
2023/01/21 00:15:42;;;;;;;;;;;;;;;6.62;56.73;98925.31;4471836;32;34077;-69
2023/01/21 00:18:09;;;;;;;;;;;;;;;7.01;54.63;98926.03;4476732;32;34107;-70
2023/01/21 00:20:37;;;;;;;;;;;;;;;6.93;54.86;98926.59;4470914;32;32695;-70
2023/01/21 00:23:04;;;;;;;;;;;;;;;6.57;56.46;98938.06;4483107;31;33491;-71
2023/01/21 00:25:31;;;;;;;;;;;;;;;7.07;54.79;98941.56;4479313;32;34116;-69
2023/01/21 00:27:59;;;;;;;;;;;;;;;6.55;56.31;98940.00;4482105;32;33821;-69
2023/01/21 00:30:26;;;;;;;;;;;;;;;6.82;55.42;98944.28;4468735;32;35889;-68
2023/01/21 00:32:54;;;;;;;;;;;;;;;7.37;54.06;98951.75;4466518;32;33581;-71
2023/01/21 00:35:21;;;;;;;;;;;;;;;7.19;55.28;98956.63;4475512;32;34399;-70
2023/01/21 00:37:49;;;;;;;;;;;;;;;6.66;55.69;98957.84;4476614;32;35472;-69
2023/01/21 00:40:17;;;;;;;;;;;;;;;6.86;55.11;98946.63;4479864;32;32144;-70
2023/01/21 00:42:45;;;;;;;;;;;;;;;6.71;57.03;98940.59;4480351;32;33468;-70
2023/01/21 00:45:12;;;;;;;;;;;;;;;6.43;56.27;98941.72;4471622;32;33867;-70
2023/01/21 00:47:39;;;;;;;;;;;;;;;6.77;56.12;98944.59;4476390;32;34163;-70
2023/01/21 00:50:07;;;;;;;;;;;;;;;5.92;59.30;98946.16;4479959;32;35318;-70
2023/01/21 00:52:35;;;;;;;;;;;;;;;6.34;57.25;98942.34;4480802;32;34268;-68
2023/01/21 00:55:02;;;;;;;;;;;;;;;6.66;56.30;98934.75;4475356;32;33898;-67
2023/01/21 00:57:29;;;;;;;;;;;;;;;6.33;57.02;98932.69;4476078;32;33839;-71
2023/01/21 00:59:57;;;;;;;;;;;;;;;6.70;56.53;98930.91;4468092;32;34406;-70
2023/01/21 01:02:24;;;;;;;;;;;;;;;6.62;57.55;98927.13;4470051;32;33577;-67
2023/01/21 01:04:51;;;;;;;;;;;;;;;6.79;56.24;98928.56;4470262;32;34244;-68
2023/01/21 01:07:18;;;;;;;;;;;;;;;6.87;55.32;98936.81;4469220;32;33587;-67
2023/01/21 01:09:46;;;;;;;;;;;;;;;7.17;55.51;98939.06;4475767;32;35095;-67
2023/01/21 01:12:13;;;;;;;;;;;;;;;7.43;54.48;98935.31;4470124;32;34675;-69
2023/01/21 01:14:41;;;;;;;;;;;;;;;7.03;54.56;98942.75;4471245;31;32625;-68
2023/01/21 01:17:08;;;;;;;;;;;;;;;7.01;54.63;98949.97;4468256;32;34532;-70
2023/01/21 01:19:35;;;;;;;;;;;;;;;7.50;53.45;98958.81;4472365;32;34824;-69
2023/01/21 01:22:02;;;;;;;;;;;;;;;7.44;53.72;98952.13;4460283;32;808821;-68
2023/01/21 01:24:30;;;;;;;;;;;;;;;7.52;53.14;98949.75;4471195;32;33971;-69
2023/01/21 01:26:57;;;;;;;;;;;;;;;7.28;54.16;98955.09;4470078;32;35441;-67
2023/01/21 01:29:25;;;;;;;;;;;;;;;7.71;52.91;98949.22;4473017;31;35917;-68
2023/01/21 01:31:52;;;;;;;;;;;;;;;7.76;52.77;98943.53;4471386;32;33724;-69
2023/01/21 01:34:19;;;;;;;;;;;;;;;7.75;52.92;98941.84;4470393;32;34794;-66
2023/01/21 01:36:47;;;;;;;;;;;;;;;7.78;52.83;98946.94;4485718;32;33919;-69
2023/01/21 01:39:15;;;;;;;;;;;;;;;7.90;52.18;98951.34;4472115;31;34835;-68
2023/01/21 01:41:42;;;;;;;;;;;;;;;7.28;54.97;98947.09;4483773;32;33785;-68
2023/01/21 01:44:28;;;;;;;;;;;;;;;7.23;55.24;98938.62;4476547;31;35292;-66
2023/01/21 01:46:55;;;;;;;;;;;;;;;7.84;53.12;98942.00;4480285;32;34204;-67
2023/01/21 01:49:23;;;;;;;;;;;;;;;7.83;52.77;98942.09;4475449;32;34110;-67
2023/01/21 01:51:57;;;;;;;;;;;;;;;7.50;53.64;98941.03;4483549;32;33654;-71
2023/01/21 01:54:29;;;;;;;;;;;;;;;7.83;52.54;98942.09;4480142;32;35274;-67
2023/01/21 01:56:57;;;;;;;;;;;;;;;7.89;52.26;98941.63;4464275;32;34135;-68
2023/01/21 01:59:24;;;;;;;;;;;;;;;8.13;52.12;98944.25;4463176;32;35194;-71
2023/01/21 02:01:51;;;;;;;;;;;;;;;8.14;51.80;98937.94;4462683;31;33481;-68
2023/01/21 02:04:20;;;;;;;;;;;;;;;8.16;51.65;98936.88;4470186;32;34022;-68
2023/01/21 02:06:47;;;;;;;;;;;;;;;8.42;50.89;98938.50;4448746;32;35281;-68
2023/01/21 02:09:15;;;;;;;;;;;;;;;7.80;52.81;98931.69;4453397;32;34499;-69
2023/01/21 02:11:42;;;;;;;;;;;;;;;8.22;51.48;98940.00;4478500;32;35170;-68
2023/01/21 02:14:09;;;;;;;;;;;;;;;8.10;52.27;98931.16;4469186;32;32626;-68
2023/01/21 02:16:40;;;;;;;;;;;;;;;7.87;52.53;98930.28;4465107;32;34078;-67
2023/01/21 02:19:22;;;;;;;;;;;;;;;7.88;52.45;98935.47;4467873;32;33634;-68
2023/01/21 02:21:54;;;;;;;;;;;;;;;8.05;51.70;98936.81;4468560;31;34314;-67
2023/01/21 02:24:30;;;;;;;;;;;;;;;8.12;51.51;98927.41;4457009;32;35523;-68
2023/01/21 02:27:07;;;;;;;;;;;;;;;8.27;51.26;98936.00;4465362;32;33013;-72
2023/01/21 02:29:54;;;;;;;;;;;;;;;8.23;52.33;98937.22;4466456;32;35164;-70
2023/01/21 02:32:40;;;;;;;;;;;;;;;8.21;51.44;98936.50;4465288;32;32804;-70
2023/01/21 02:35:13;;;;;;;;;;;;;;;8.11;51.77;98941.69;4467346;32;33658;-70
2023/01/21 02:37:48;;;;;;;;;;;;;;;7.66;53.11;98930.06;4453429;31;34386;-71
2023/01/21 02:40:25;;;;;;;;;;;;;;;7.98;51.76;98940.09;4458073;32;33909;-70
2023/01/21 02:43:08;;;;;;;;;;;;;;;7.52;53.82;98946.25;4477801;32;33317;-71
2023/01/21 02:45:46;;;;;;;;;;;;;;;7.60;53.28;98941.19;4476214;32;33954;-69
2023/01/21 02:48:13;;;;;;;;;;;;;;;7.83;53.13;98942.09;4462123;32;33913;-70
2023/01/21 02:50:44;;;;;;;;;;;;;;;7.86;53.83;98941.87;4468119;32;36411;-71
2023/01/21 02:53:27;;;;;;;;;;;;;;;7.70;53.73;98939.53;4456854;32;33221;-71
2023/01/21 02:55:56;;;;;;;;;;;;;;;7.98;52.80;98932.09;4468122;32;33967;-69
2023/01/21 02:58:24;;;;;;;;;;;;;;;7.87;52.72;98933.78;4472100;32;33537;-70
2023/01/21 03:01:15;;;;;;;;;;;;;;;7.63;53.48;98923.16;4462307;32;34136;-71
2023/01/21 03:03:45;;;;;;;;;;;;;;;8.25;51.30;98921.97;4472383;32;32829;-70
2023/01/21 03:06:34;;;;;;;;;;;;;;;8.21;51.44;98914.31;4472133;32;32655;-70
2023/01/21 03:09:12;;;;;;;;;;;;;;;7.78;53.24;98915.00;4461417;32;34341;-70
2023/01/21 03:11:39;;;;;;;;;;;;;;;8.19;51.69;98911.78;4458622;32;34199;-70
2023/01/21 03:17:03;;;;;;;;;;;;;;;7.72;52.64;98923.44;4456609;32;33705;-70
2023/01/21 03:19:32;;;;;;;;;;;;;;;7.91;52.46;98934.37;4458852;32;33047;-71
2023/01/21 03:22:00;;;;;;;;;;;;;;;7.91;52.61;98940.56;4454427;32;34534;-71
2023/01/21 03:24:27;;;;;;;;;;;;;;;8.30;51.19;98938.44;4463214;32;33666;-72
2023/01/21 03:26:57;;;;;;;;;;;;;;;8.55;50.43;98945.41;4460816;32;32881;-68
2023/01/21 03:29:25;;;;;;;;;;;;;;;8.47;50.63;98939.81;4454826;32;35674;-70
2023/01/21 03:31:54;;;;;;;;;;;;;;;8.33;50.63;98940.03;4471897;31;34069;-70
2023/01/21 03:34:22;;;;;;;;;;;;;;;7.92;51.64;98941.41;4464098;32;33255;-70
2023/01/21 03:36:49;;;;;;;;;;;;;;;8.55;50.18;98940.06;4466419;32;33777;-70
2023/01/21 03:39:18;;;;;;;;;;;;;;;8.28;51.74;98940.41;4470919;32;34050;-71
2023/01/21 03:41:46;;;;;;;;;;;;;;;8.39;50.59;98944.91;4458003;32;34129;-69
2023/01/21 03:44:13;;;;;;;;;;;;;;;7.93;52.48;98957.28;4474422;32;33840;-69
2023/01/21 03:46:43;;;;;;;;;;;;;;;8.25;50.87;98963.75;4477793;32;34146;-72
2023/01/21 03:49:15;;;;;;;;;;;;;;;7.24;54.76;98965.13;4476481;32;33237;-69
2023/01/21 03:51:44;;;;;;;;;;;;;;;7.93;52.03;98959.97;4458385;32;34394;-70
2023/01/21 03:54:11;;;;;;;;;;;;;;;8.08;51.84;98967.72;4457263;32;33395;-71
2023/01/21 03:56:38;;;;;;;;;;;;;;;8.06;51.62;98965.19;4465898;32;33703;-70
2023/01/21 03:59:06;;;;;;;;;;;;;;;7.89;52.30;98969.12;4469780;31;34169;-69
2023/01/21 04:01:33;;;;;;;;;;;;;;;8.19;51.22;98973.09;4472321;31;33143;-69
2023/01/21 04:04:01;;;;;;;;;;;;;;;7.97;51.56;98973.06;4470884;32;34602;-70
2023/01/21 04:06:28;;;;;;;;;;;;;;;8.20;50.88;98977.47;4470400;31;34192;-69
2023/01/21 04:08:55;;;;;;;;;;;;;;;8.29;50.57;98982.09;4475808;32;33907;-70
2023/01/21 04:11:23;;;;;;;;;;;;;;;8.23;50.90;98992.38;4465134;32;34499;-70
2023/01/21 04:13:50;;;;;;;;;;;;;;;8.21;51.30;98996.97;4473052;32;32424;-71
2023/01/21 04:16:17;;;;;;;;;;;;;;;8.32;50.45;98991.66;4474584;32;32752;-70
2023/01/21 04:18:46;;;;;;;;;;;;;;;8.07;51.13;98993.53;4468990;32;34452;-71
2023/01/21 04:21:13;;;;;;;;;;;;;;;8.27;51.04;98996.50;4470834;32;35382;-70
2023/01/21 04:23:41;;;;;;;;;;;;;;;8.45;50.47;98992.44;4465565;32;33451;-71
2023/01/21 04:26:08;;;;;;;;;;;;;;;8.66;49.71;99003.22;4464603;32;34267;-70
2023/01/21 04:28:35;;;;;;;;;;;;;;;8.58;49.91;99003.00;4477073;31;34423;-70
2023/01/21 04:31:02;;;;;;;;;;;;;;;8.51;50.43;99002.63;4470094;32;34276;-70
2023/01/21 04:33:30;;;;;;;;;;;;;;;8.57;50.54;99001.28;4473302;32;33521;-69
2023/01/21 04:35:58;;;;;;;;;;;;;;;8.47;50.44;99009.16;4469474;32;34150;-67
2023/01/21 04:38:25;;;;;;;;;;;;;;;8.68;50.15;99005.78;4470584;32;34026;-68
2023/01/21 04:40:53;;;;;;;;;;;;;;;8.92;49.35;99016.31;4469604;32;35323;-68
2023/01/21 04:43:20;;;;;;;;;;;;;;;8.83;49.54;99024.09;4473082;32;31743;-68
2023/01/21 04:45:48;;;;;;;;;;;;;;;8.87;49.56;99032.72;4468557;32;34148;-68
2023/01/21 04:48:16;;;;;;;;;;;;;;;8.61;49.81;99029.44;4477051;32;34218;-68
2023/01/21 04:50:44;;;;;;;;;;;;;;;8.73;49.78;99030.28;4480235;32;34241;-69
2023/01/21 04:53:12;;;;;;;;;;;;;;;8.80;49.59;99028.84;4474746;32;33368;-69
2023/01/21 04:55:39;;;;;;;;;;;;;;;8.72;50.14;99028.59;4471305;32;33943;-69
2023/01/21 04:58:06;;;;;;;;;;;;;;;8.74;49.40;99029.31;4468010;32;35824;-72
2023/01/21 05:00:33;;;;;;;;;;;;;;;8.49;50.10;99019.72;4476629;31;33119;-71
2023/01/21 05:03:01;;;;;;;;;;;;;;;8.40;51.12;99031.94;4473338;32;33585;-67
2023/01/21 05:05:28;;;;;;;;;;;;;;;8.71;50.07;99040.22;4474816;32;33903;-68
2023/01/21 05:07:56;;;;;;;;;;;;;;;8.38;51.00;99041.88;4468013;32;35353;-67
2023/01/21 05:10:23;;;;;;;;;;;;;;;8.32;50.77;99040.50;4465604;32;34306;-68
2023/01/21 05:12:50;;;;;;;;;;;;;;;8.30;51.54;99039.75;4474784;32;33220;-68
2023/01/21 05:15:17;;;;;;;;;;;;;;;8.30;51.52;99045.09;4465320;32;34730;-68
2023/01/21 05:17:45;;;;;;;;;;;;;;;8.36;51.64;99046.44;4475592;32;34484;-67
2023/01/21 05:20:12;;;;;;;;;;;;;;;8.17;51.99;99044.34;4475728;32;34556;-67
2023/01/21 05:22:39;;;;;;;;;;;;;;;8.28;52.21;99041.72;4466850;32;33375;-67
2023/01/21 05:25:07;;;;;;;;;;;;;;;7.83;53.51;99048.69;4472162;32;34163;-67
2023/01/21 05:27:34;;;;;;;;;;;;;;;8.28;51.98;99051.50;4476042;32;34248;-68
2023/01/21 05:30:01;;;;;;;;;;;;;;;7.99;52.65;99054.56;4437013;32;34264;-67
2023/01/21 05:32:29;;;;;;;;;;;;;;;8.48;50.61;99066.03;4433080;32;33669;-67
2023/01/21 05:34:56;;;;;;;;;;;;;;;8.31;51.88;99064.59;4438263;32;34036;-68
2023/01/21 05:37:23;;;;;;;;;;;;;;;8.20;52.86;99068.09;4438912;32;34266;-69
2023/01/21 05:39:51;;;;;;;;;;;;;;;8.51;51.41;99063.13;4436827;32;35492;-68
2023/01/21 05:42:18;;;;;;;;;;;;;;;8.57;50.67;99060.84;4442146;32;33442;-69
2023/01/21 05:44:45;;;;;;;;;;;;;;;8.60;50.91;99060.59;4444867;32;34135;-69
2023/01/21 05:47:13;;;;;;;;;;;;;;;8.39;52.41;99063.09;4443092;32;35272;-70
2023/01/21 05:49:40;;;;;;;;;;;;;;;8.60;50.73;99073.94;4442979;32;34415;-71
2023/01/21 05:52:07;;;;;;;;;;;;;;;8.52;50.86;99075.50;4444758;32;33741;-71
2023/01/21 05:54:34;;;;;;;;;;;;;;;8.73;50.40;99072.97;4448878;32;33956;-68
2023/01/21 05:57:02;;;;;;;;;;;;;;;8.11;52.15;99066.97;4443209;32;34353;-69
2023/01/21 05:59:29;;;;;;;;;;;;;;;7.98;52.18;99071.50;4444344;32;34222;-69
2023/01/21 06:01:56;;;;;;;;;;;;;;;8.54;51.18;99079.75;4442332;32;33387;-68
2023/01/21 06:04:29;;;;;;;;;;;;;;;8.33;51.47;99078.69;4446927;32;34000;-68
2023/01/21 06:06:56;;;;;;;;;;;;;;;8.67;50.62;99084.97;4441565;32;34849;-67
2023/01/21 06:09:24;;;;;;;;;;;;;;;8.96;49.68;99095.22;4447786;32;35126;-68
2023/01/21 06:11:51;;;;;;;;;;;;;;;8.96;49.36;99104.06;4441486;32;32429;-69
2023/01/21 06:14:18;;;;;;;;;;;;;;;8.75;50.03;99095.03;4435574;32;34183;-70
2023/01/21 06:16:46;;;;;;;;;;;;;;;9.03;49.28;99088.41;4436324;32;34194;-69
2023/01/21 06:19:13;;;;;;;;;;;;;;;9.02;49.07;99092.03;4449009;32;35335;-70
2023/01/21 06:21:40;;;;;;;;;;;;;;;8.79;49.66;99097.34;4446020;32;34341;-68
2023/01/21 06:24:08;;;;;;;;;;;;;;;8.75;49.84;99098.56;4448357;32;34612;-69
2023/01/21 06:26:35;;;;;;;;;;;;;;;8.72;49.96;99106.81;4449787;32;33709;-71
2023/01/21 06:29:02;;;;;;;;;;;;;;;8.62;50.11;99112.00;4465373;32;35342;-71
2023/01/21 06:31:30;;;;;;;;;;;;;;;8.69;49.97;99114.19;4480821;32;33373;-70
2023/01/21 06:33:57;;;;;;;;;;;;;;;8.80;49.79;99123.09;4469707;32;33362;-66
2023/01/21 06:36:25;;;;;;;;;;;;;;;8.83;49.35;99133.53;4470504;32;33866;-69
2023/01/21 06:38:52;;;;;;;;;;;;;;;8.59;50.00;99130.06;4474904;32;32785;-69
2023/01/21 06:41:19;;;;;;;;;;;;;;;8.71;50.44;99129.12;4471123;32;34421;-69
2023/01/21 06:43:46;;;;;;;;;;;;;;;8.90;49.63;99136.56;4477913;32;34838;-70
2023/01/21 06:46:14;;;;;;;;;;;;;;;8.56;51.06;99139.13;4477501;32;35601;-68
2023/01/21 06:48:42;;;;;;;;;;;;;;;8.90;50.14;99139.22;4466149;32;34058;-69
2023/01/21 06:51:09;;;;;;;;;;;;;;;8.96;49.46;99133.41;4474452;32;32352;-68
2023/01/21 06:53:36;;;;;;;;;;;;;;;8.92;50.25;99129.25;4478997;31;33831;-68
2023/01/21 06:56:04;;;;;;;;;;;;;;;8.94;50.07;99135.34;4473612;32;34057;-68
2023/01/21 06:58:31;;;;;;;;;;;;;;;9.07;49.51;99136.09;4474984;32;34501;-69
2023/01/21 07:00:58;;;;;;;;;;;;;;;8.96;50.29;99144.09;4466163;31;34089;-68
2023/01/21 07:03:26;;;;;;;;;;;;;;;9.22;49.27;99142.06;4475280;32;33929;-69
2023/01/21 07:05:53;;;;;;;;;;;;;;;9.07;49.76;99143.25;4470522;32;35737;-70
2023/01/21 07:08:20;;;;;;;;;;;;;;;9.15;49.64;99140.84;4472098;32;34890;-68
2023/01/21 07:10:48;;;;;;;;;;;;;;;9.02;49.72;99142.75;4468031;32;33760;-70
2023/01/21 07:13:15;;;;;;;;;;;;;;;9.10;49.80;99149.19;4476834;32;34285;-68
2023/01/21 07:15:42;;;;;;;;;;;;;;;8.80;50.37;99154.25;4477051;32;33031;-68
2023/01/21 07:18:09;;;;;;;;;;;;;;;8.83;50.43;99164.69;4476694;32;34533;-69
2023/01/21 07:20:39;;;;;;;;;;;;;;;8.99;50.38;99167.00;4478113;31;34086;-68
2023/01/21 07:23:07;;;;;;;;;;;;;;;9.01;49.83;99165.06;4462432;32;33212;-68
2023/01/21 07:25:36;;;;;;;;;;;;;;;9.23;49.29;99178.47;4472925;32;34105;-68
2023/01/21 07:28:03;;;;;;;;;;;;;;;9.27;49.04;99189.75;4465187;32;34064;-68
2023/01/21 07:30:30;;;;;;;;;;;;;;;9.32;48.73;99188.41;4477930;32;32389;-68
2023/01/21 07:33:03;;;;;;;;;;;;;;;9.10;50.21;99197.25;4475532;32;34200;-68
2023/01/21 07:35:30;;;;;;;;;;;;;;;9.43;48.72;99206.25;4476061;32;35381;-68
2023/01/21 07:37:58;;;;;;;;;;;;;;;9.39;49.15;99211.97;4473314;31;34232;-67
2023/01/21 07:40:25;;;;;;;;;;;;;;;9.49;48.33;99208.47;4470306;32;34721;-67
2023/01/21 07:42:53;;;;;;;;;;;;;;;9.26;49.33;99210.25;4468207;32;32384;-68
2023/01/21 07:45:21;;;;;;;;;;;;;;;9.37;48.37;99217.44;4468469;32;32978;-68
2023/01/21 07:47:48;;;;;;;;;;;;;;;9.48;48.14;99209.44;4466541;32;34335;-68
2023/01/21 07:50:15;;;;;;;;;;;;;;;9.41;48.71;99210.06;4474034;31;33531;-67
2023/01/21 07:52:43;;;;;;;;;;;;;;;9.43;48.60;99211.59;4474468;32;34437;-68
2023/01/21 07:55:10;;;;;;;;;;;;;;;9.45;48.60;99219.50;4472292;32;34124;-68
2023/01/21 07:57:39;;;;;;;;;;;;;;;9.38;49.38;99224.50;4475706;32;33644;-68
2023/01/21 08:00:06;;;;;;;;;;;;;;;9.26;50.15;99231.63;4465065;31;34655;-68
2023/01/21 08:02:37;;;;;;;;;;;;;;;9.25;50.14;99231.75;4465848;32;34127;-68
2023/01/21 08:05:05;;;;;;;;;;;;;;;9.33;50.20;99234.66;4475144;32;34312;-68
2023/01/21 08:07:32;;;;;;;;;;;;;;;9.71;48.60;99244.19;4474315;32;32587;-68
2023/01/21 08:10:00;;;;;;;;;;;;;;;9.70;48.19;99234.47;4474383;32;34595;-68
2023/01/21 08:12:27;;;;;;;;;;;;;;;9.38;49.73;99235.19;4475024;32;34762;-68
2023/01/21 08:14:54;;;;;;;;;;;;;;;9.73;48.41;99236.91;4467341;32;34656;-69
2023/01/21 08:17:21;;;;;;;;;;;;;;;9.73;48.43;99243.09;4474583;32;34135;-69
2023/01/21 08:19:49;;;;;;;;;;;;;;;9.55;49.53;99241.88;4472332;32;34695;-68
2023/01/21 08:22:16;;;;;;;;;;;;;;;9.56;49.47;99240.88;4465786;32;34118;-69
2023/01/21 08:24:43;;;;;;;;;;;;;;;9.48;49.78;99244.16;4464283;32;34614;-68
2023/01/21 08:27:11;;;;;;;;;;;;;;;9.84;48.00;99244.91;4470591;32;33894;-68
2023/01/21 08:29:38;;;;;;;;;;;;;;;9.65;48.86;99237.50;4469789;32;34349;-68
2023/01/21 08:32:05;;;;;;;;;;;;;;;9.85;48.30;99240.41;4465254;32;34266;-69
2023/01/21 08:34:32;;;;;;;;;;;;;;;9.74;48.72;99246.59;4468507;32;34226;-68
2023/01/21 08:37:00;;;;;;;;;;;;;;;9.95;48.15;99252.06;4467789;32;35396;-68
2023/01/21 08:39:27;;;;;;;;;;;;;;;9.91;47.96;99248.78;4476631;32;33809;-69
2023/01/21 08:41:55;;;;;;;;;;;;;;;9.94;47.92;99258.38;4465416;32;32494;-68
2023/01/21 08:44:22;;;;;;;;;;;;;;;9.92;48.04;99265.66;4464163;31;34393;-70
2023/01/21 08:46:49;;;;;;;;;;;;;;;9.91;47.78;99269.31;4477616;32;34208;-69
2023/01/21 08:49:16;;;;;;;;;;;;;;;9.87;47.51;99263.38;4469348;31;33585;-68
2023/01/21 08:51:44;;;;;;;;;;;;;;;9.56;49.39;99254.25;4466232;32;34925;-69
2023/01/21 08:54:11;;;;;;;;;;;;;;;9.80;49.09;99260.34;4469533;32;33000;-69
2023/01/21 08:56:38;;;;;;;;;;;;;;;9.88;48.21;99277.56;4467184;32;34359;-68
2023/01/21 08:59:06;;;;;;;;;;;;;;;9.50;49.51;99257.38;4464521;32;34238;-69
2023/01/21 09:01:34;;;;;;;;;;;;;;;9.80;48.13;99271.03;4461916;32;34024;-68
2023/01/21 09:04:02;;;;;;;;;;;;;;;9.75;48.49;99265.19;4465300;32;34721;-68
2023/01/21 09:06:29;;;;;;;;;;;;;;;9.78;48.49;99269.44;4472459;32;34188;-68
2023/01/21 09:08:57;;;;;;;;;;;;;;;10.02;47.70;99266.66;4477089;32;34557;-68
2023/01/21 09:11:25;;;;;;;;;;;;;;;9.54;49.64;99258.88;4469846;31;34828;-68
2023/01/21 09:13:52;;;;;;;;;;;;;;;9.85;48.88;99270.66;4475140;32;34451;-69
2023/01/21 09:16:20;;;;;;;;;;;;;;;10.03;48.02;99277.22;4468281;32;33366;-68
2023/01/21 09:18:48;;;;;;;;;;;;;;;10.03;48.77;99271.03;4471222;32;34367;-67
2023/01/21 09:21:15;;;;;;;;;;;;;;;10.18;47.72;99269.78;4471905;32;34863;-68
2023/01/21 09:23:43;;;;;;;;;;;;;;;10.22;47.89;99265.88;4476493;32;33047;-68
2023/01/21 09:26:20;;;;;;;;;;;;;;;10.34;47.77;99261.41;4467694;32;35532;-69
2023/01/21 09:28:54;;;;;;;;;;;;;;;10.38;48.26;99270.03;4471476;32;34505;-68
2023/01/21 09:31:22;;;;;;;;;;;;;;;10.45;48.37;99274.75;4473848;32;34090;-68
2023/01/21 09:33:51;;;;;;;;;;;;;;;10.42;47.93;99271.47;4469469;32;35058;-68
2023/01/21 09:36:19;;;;;;;;;;;;;;;10.57;47.68;99270.22;4471060;32;35149;-68
2023/01/21 09:38:47;;;;;;;;;;;;;;;10.57;47.80;99267.56;4470011;32;33613;-68
2023/01/21 09:41:22;;;;;;;;;;;;;;;10.30;48.63;99275.13;4471997;32;33687;-69
2023/01/21 09:43:58;;;;;;;;;;;;;;;10.52;48.20;99277.78;4474665;32;34290;-68
2023/01/21 09:46:37;;;;;;;;;;;;;;;10.67;47.68;99281.88;4463324;32;34370;-68
2023/01/21 09:49:05;;;;;;;;;;;;;;;10.49;48.56;99276.19;4465733;32;33529;-69
2023/01/21 09:51:46;;;;;;;;;;;;;;;10.12;49.84;99278.31;4463567;32;33692;-69
2023/01/21 09:54:18;;;;;;;;;;;;;;;10.17;49.48;99273.41;4458779;32;34073;-66
2023/01/21 09:57:04;;;;;;;;;;;;;;;10.15;49.54;99266.53;4458867;32;34264;-66
2023/01/21 09:59:34;;;;;;;;;;;;;;;10.31;49.22;99283.06;4478300;32;33498;-69
2023/01/21 10:02:02;;;;;;;;;;;;;;;10.74;48.33;99276.84;4471271;32;34087;-69
2023/01/21 10:04:35;;;;;;;;;;;;;;;10.85;47.88;99273.28;4464654;32;34134;-69
2023/01/21 10:07:06;;;;;;;;;;;;;;;10.75;48.24;99281.22;4476274;32;34396;-69
2023/01/21 10:09:37;;;;;;;;;;;;;;;10.89;48.13;99272.06;4471509;32;34334;-69
2023/01/21 10:12:11;;;;;;;;;;;;;;;10.91;47.65;99270.09;4468641;32;33238;-69
2023/01/21 10:14:38;;;;;;;;;;;;;;;10.68;47.75;99275.53;4471718;32;35310;-69
2023/01/21 10:17:05;;;;;;;;;;;;;;;10.61;48.64;99273.50;4472097;32;35379;-69
2023/01/21 10:19:35;;;;;;;;;;;;;;;10.83;48.47;99272.56;4484090;32;33372;-69
2023/01/21 10:22:04;;;;;;;;;;;;;;;10.73;48.71;99276.00;4464299;32;34754;-69
2023/01/21 10:24:31;;;;;;;;;;;;;;;10.63;49.21;99274.22;4461809;32;34590;-69
2023/01/21 10:26:58;;;;;;;;;;;;;;;10.35;49.43;99281.81;4477569;32;33980;-69
2023/01/21 10:29:26;;;;;;;;;;;;;;;10.76;48.57;99274.91;4484712;32;34705;-69
2023/01/21 10:31:58;;;;;;;;;;;;;;;10.81;48.63;99280.72;4465565;31;34188;-69
2023/01/21 10:34:29;;;;;;;;;;;;;;;10.95;48.44;99283.09;4464527;32;33992;-69
2023/01/21 10:36:56;;;;;;;;;;;;;;;10.87;48.72;99288.25;4469921;32;34460;-69
2023/01/21 10:39:38;;;;;;;;;;;;;;;10.82;48.87;99279.75;4477967;32;34228;-69
2023/01/21 10:42:05;;;;;;;;;;;;;;;10.80;48.73;99288.88;4464297;32;35195;-69
2023/01/21 10:44:51;;;;;;;;;;;;;;;10.64;49.18;99283.94;4475096;32;34337;-69
2023/01/21 10:47:37;;;;;;;;;;;;;;;10.94;48.15;99281.38;4472059;32;35128;-69
2023/01/21 10:50:17;;;;;;;;;;;;;;;10.66;49.25;99292.72;4468672;32;33545;-68
2023/01/21 10:52:47;;;;;;;;;;;;;;;10.88;48.29;99289.09;4474548;32;33575;-68
2023/01/21 10:55:29;;;;;;;;;;;;;;;10.98;47.91;99298.06;4459978;32;33708;-67
2023/01/21 10:58:01;;;;;;;;;;;;;;;11.02;47.69;99296.84;4475048;32;34543;-66
2023/01/21 11:00:38;;;;;;;;;;;;;;;11.00;48.16;99287.22;4469840;32;34281;-68
2023/01/21 11:03:24;;;;;;;;;;;;;;;10.96;48.17;99290.16;4456421;32;34661;-69
2023/01/21 11:05:51;;;;;;;;;;;;;;;10.69;48.95;99281.75;4477062;32;34449;-69
2023/01/21 11:08:20;;;;;;;;;;;;;;;10.90;48.40;99281.78;4477525;32;35557;-69
2023/01/21 11:10:48;;;;;;;;;;;;;;;11.18;47.40;99274.97;4453706;32;33329;-68
2023/01/21 11:13:15;;;;;;;;;;;;;;;11.16;47.59;99275.06;4466028;32;33941;-68
2023/01/21 11:15:47;;;;;;;;;;;;;;;10.99;48.08;99280.19;4478117;32;32844;-69
2023/01/21 11:18:33;;;;;;;;;;;;;;;10.60;49.39;99286.03;4481967;32;34372;-69
2023/01/21 11:21:26;;;;;;;;;;;;;;;10.85;48.47;99281.31;4471878;32;33328;-69
2023/01/21 11:23:54;;;;;;;;;;;;;;;10.77;48.90;99287.31;4468477;31;34109;-69
2023/01/21 11:26:27;;;;;;;;;;;;;;;10.66;49.06;99280.19;4470469;31;34452;-69
2023/01/21 11:29:13;;;;;;;;;;;;;;;10.75;49.19;99280.38;4469919;31;35369;-67
2023/01/21 11:31:41;;;;;;;;;;;;;;;10.93;48.54;99274.34;4479563;32;33768;-67
2023/01/21 11:34:12;;;;;;;;;;;;;;;10.70;48.93;99275.41;4461247;32;33899;-67
2023/01/21 11:37:00;;;;;;;;;;;;;;;10.78;48.46;99275.63;4453743;32;34196;-67
2023/01/21 11:39:28;;;;;;;;;;;;;;;10.42;50.08;99280.34;4475185;32;33697;-67
2023/01/21 11:41:56;;;;;;;;;;;;;;;10.61;49.46;99270.81;4476144;32;33603;-68
2023/01/21 11:44:23;;;;;;;;;;;;;;;10.81;49.16;99271.84;4462868;32;35295;-67
2023/01/21 11:46:51;;;;;;;;;;;;;;;10.75;49.08;99265.16;4478368;32;34943;-66
2023/01/21 11:49:23;;;;;;;;;;;;;;;10.78;49.09;99262.22;4470844;32;33030;-67
2023/01/21 11:51:50;;;;;;;;;;;;;;;10.75;49.70;99265.16;4470819;32;34631;-67
2023/01/21 11:54:21;;;;;;;;;;;;;;;10.46;49.99;99263.09;4467360;32;34886;-67
2023/01/21 11:56:51;;;;;;;;;;;;;;;10.34;49.82;99271.25;4479868;32;34288;-67
2023/01/21 11:59:24;;;;;;;;;;;;;;;10.73;49.27;99269.81;4481466;32;33094;-68
2023/01/21 12:01:59;;;;;;;;;;;;;;;10.67;49.14;99264.97;4473316;32;33350;-67
2023/01/21 12:04:26;;;;;;;;;;;;;;;10.69;49.15;99271.91;4454947;32;33991;-68
2023/01/21 12:06:56;;;;;;;;;;;;;;;9.95;50.60;99281.47;4469577;32;34115;-67
2023/01/21 12:09:24;;;;;;;;;;;;;;;9.95;50.82;99279.66;4460417;32;34187;-66
2023/01/21 12:12:06;;;;;;;;;;;;;;;10.53;49.20;99276.81;4475931;32;33673;-66
2023/01/21 12:14:40;;;;;;;;;;;;;;;10.62;49.60;99269.84;4468550;32;35698;-67
2023/01/21 12:17:16;;;;;;;;;;;;;;;10.47;49.86;99270.13;4468036;32;34227;-66
2023/01/21 12:20:02;;;;;;;;;;;;;;;10.55;48.54;99274.00;4478193;32;34331;-67
2023/01/21 12:22:48;;;;;;;;;;;;;;;10.37;49.52;99271.00;4471978;31;34329;-67
2023/01/21 12:25:21;;;;;;;;;;;;;;;10.42;50.14;99280.34;4470263;32;34326;-68
2023/01/21 12:28:04;;;;;;;;;;;;;;;10.59;49.51;99283.47;4472456;31;33416;-68
2023/01/21 12:30:44;;;;;;;;;;;;;;;10.20;50.32;99293.72;4476036;32;33624;-67
2023/01/21 12:33:32;;;;;;;;;;;;;;;10.68;49.54;99291.59;4474589;32;33729;-67
2023/01/21 12:36:00;;;;;;;;;;;;;;;10.52;49.76;99288.47;4474871;32;33506;-67
2023/01/21 12:38:54;;;;;;;;;;;;;;;10.66;48.91;99290.88;4478483;31;34318;-67
2023/01/21 12:41:22;;;;;;;;;;;;;;;10.55;49.05;99290.06;4440416;32;34622;-67
2023/01/21 12:43:51;;;;;;;;;;;;;;;10.38;49.64;99297.63;4481464;32;34615;-66
2023/01/21 12:46:21;;;;;;;;;;;;;;;10.42;49.06;99301.75;4462454;32;34425;-67
2023/01/21 12:49:06;;;;;;;;;;;;;;;9.22;50.28;99304.09;4477309;32;33359;-67
2023/01/21 12:51:35;;;;;;;;;;;;;;;9.04;52.34;99309.00;4461486;32;34791;-67
2023/01/21 12:54:13;;;;;;;;;;;;;;;8.08;54.48;99304.41;4477618;32;33187;-67
2023/01/21 12:56:42;;;;;;;;;;;;;;;7.68;54.92;99312.56;4458224;32;34048;-67
2023/01/21 12:59:09;;;;;;;;;;;;;;;7.32;55.89;99304.44;4469220;32;33287;-67
2023/01/21 13:01:37;;;;;;;;;;;;;;;7.23;58.76;99306.78;4472512;32;34149;-67
2023/01/21 13:04:22;;;;;;;;;;;;;;;7.29;57.75;99317.97;4469679;32;34517;-68
2023/01/21 13:06:51;;;;;;;;;;;;;;;7.02;58.31;99324.19;4476386;32;34181;-68
2023/01/21 13:09:24;;;;;;;;;;;;;;;6.96;58.38;99321.94;4468719;32;35391;-68
2023/01/21 13:11:52;;;;;;;;;;;;;;;7.37;58.43;99323.63;4474318;31;34285;-68